sensor_id;sensor_type;location;lat;lon;timestamp;temperature;humidity
9223;DHT22;7557;51.698;3.942;2023-07-16T00:01:18;18.20;99.90
9223;DHT22;7557;51.698;3.942;2023-07-16T00:03:46;18.20;99.90
9223;DHT22;7557;51.698;3.942;2023-07-16T00:06:13;18.20;99.90
9223;DHT22;7557;51.698;3.942;2023-07-16T00:08:40;18.10;99.90
9223;DHT22;7557;51.698;3.942;2023-07-16T00:11:07;18.10;99.90
9223;DHT22;7557;51.698;3.942;2023-07-16T00:13:34;18.10;99.90
9223;DHT22;7557;51.698;3.942;2023-07-16T00:16:03;18.10;99.90
9223;DHT22;7557;51.698;3.942;2023-07-16T00:18:30;18.10;99.90
9223;DHT22;7557;51.698;3.942;2023-07-16T00:20:57;18.10;99.90
9223;DHT22;7557;51.698;3.942;2023-07-16T00:23:25;18.10;99.90
9223;DHT22;7557;51.698;3.942;2023-07-16T00:25:52;18.10;99.90
9223;DHT22;7557;51.698;3.942;2023-07-16T00:28:19;18.10;99.90
9223;DHT22;7557;51.698;3.942;2023-07-16T00:30:46;18.10;99.90
9223;DHT22;7557;51.698;3.942;2023-07-16T00:33:15;18.10;99.90
9223;DHT22;7557;51.698;3.942;2023-07-16T00:35:47;18.10;99.90
9223;DHT22;7557;51.698;3.942;2023-07-16T00:38:16;18.10;99.90
9223;DHT22;7557;51.698;3.942;2023-07-16T00:40:44;18.10;99.90
9223;DHT22;7557;51.698;3.942;2023-07-16T00:43:11;18.10;99.90
9223;DHT22;7557;51.698;3.942;2023-07-16T00:49:02;18.10;99.90
9223;DHT22;7557;51.698;3.942;2023-07-16T00:51:30;18.00;99.90
9223;DHT22;7557;51.698;3.942;2023-07-16T00:53:58;18.10;99.90
9223;DHT22;7557;51.698;3.942;2023-07-16T00:56:26;18.10;99.90
9223;DHT22;7557;51.698;3.942;2023-07-16T00:58:57;18.10;99.90
9223;DHT22;7557;51.698;3.942;2023-07-16T01:01:24;18.10;99.90
9223;DHT22;7557;51.698;3.942;2023-07-16T01:03:52;18.10;99.90
9223;DHT22;7557;51.698;3.942;2023-07-16T01:06:25;18.10;99.90
9223;DHT22;7557;51.698;3.942;2023-07-16T01:09:01;18.10;99.90
9223;DHT22;7557;51.698;3.942;2023-07-16T01:11:30;18.20;99.90
9223;DHT22;7557;51.698;3.942;2023-07-16T01:13:58;18.20;99.90
9223;DHT22;7557;51.698;3.942;2023-07-16T01:16:27;18.20;99.90
9223;DHT22;7557;51.698;3.942;2023-07-16T01:18:55;18.20;99.90
9223;DHT22;7557;51.698;3.942;2023-07-16T01:21:24;18.20;99.90
9223;DHT22;7557;51.698;3.942;2023-07-16T01:24:14;18.20;99.90
9223;DHT22;7557;51.698;3.942;2023-07-16T01:27:09;18.20;99.90
9223;DHT22;7557;51.698;3.942;2023-07-16T01:29:45;18.20;99.90
9223;DHT22;7557;51.698;3.942;2023-07-16T01:32:15;18.10;99.90
9223;DHT22;7557;51.698;3.942;2023-07-16T01:34:44;18.10;99.90
9223;DHT22;7557;51.698;3.942;2023-07-16T01:37:12;18.10;99.90
9223;DHT22;7557;51.698;3.942;2023-07-16T01:39:39;18.10;99.90
9223;DHT22;7557;51.698;3.942;2023-07-16T01:42:06;18.10;99.90
9223;DHT22;7557;51.698;3.942;2023-07-16T01:44:34;18.20;99.90
9223;DHT22;7557;51.698;3.942;2023-07-16T01:47:09;18.10;99.90
9223;DHT22;7557;51.698;3.942;2023-07-16T01:49:36;18.20;99.90
9223;DHT22;7557;51.698;3.942;2023-07-16T01:52:06;18.20;99.90
9223;DHT22;7557;51.698;3.942;2023-07-16T01:54:33;18.20;99.90
9223;DHT22;7557;51.698;3.942;2023-07-16T01:57:01;18.20;99.90
9223;DHT22;7557;51.698;3.942;2023-07-16T01:59:28;18.30;99.90
9223;DHT22;7557;51.698;3.942;2023-07-16T02:01:55;18.30;99.90
9223;DHT22;7557;51.698;3.942;2023-07-16T02:04:24;18.40;99.90
9223;DHT22;7557;51.698;3.942;2023-07-16T02:06:51;18.40;99.90
9223;DHT22;7557;51.698;3.942;2023-07-16T02:09:18;18.40;99.90
9223;DHT22;7557;51.698;3.942;2023-07-16T02:11:46;18.40;99.90
9223;DHT22;7557;51.698;3.942;2023-07-16T02:14:13;18.40;99.90
9223;DHT22;7557;51.698;3.942;2023-07-16T02:16:41;18.40;99.90
9223;DHT22;7557;51.698;3.942;2023-07-16T02:19:09;18.30;99.90
9223;DHT22;7557;51.698;3.942;2023-07-16T02:21:38;18.30;99.90
9223;DHT22;7557;51.698;3.942;2023-07-16T02:24:05;18.30;99.90
9223;DHT22;7557;51.698;3.942;2023-07-16T02:26:32;18.30;99.90
9223;DHT22;7557;51.698;3.942;2023-07-16T02:29:00;18.20;99.90
9223;DHT22;7557;51.698;3.942;2023-07-16T02:31:27;18.20;99.90
9223;DHT22;7557;51.698;3.942;2023-07-16T02:33:54;18.10;99.90
9223;DHT22;7557;51.698;3.942;2023-07-16T02:36:21;18.00;99.90
9223;DHT22;7557;51.698;3.942;2023-07-16T02:38:50;17.90;99.90
9223;DHT22;7557;51.698;3.942;2023-07-16T02:41:17;17.80;99.90
9223;DHT22;7557;51.698;3.942;2023-07-16T02:43:45;17.80;99.90
9223;DHT22;7557;51.698;3.942;2023-07-16T02:46:13;17.70;99.90
9223;DHT22;7557;51.698;3.942;2023-07-16T02:48:40;17.70;99.90
9223;DHT22;7557;51.698;3.942;2023-07-16T02:51:07;17.70;99.90
9223;DHT22;7557;51.698;3.942;2023-07-16T02:53:34;17.70;99.90
9223;DHT22;7557;51.698;3.942;2023-07-16T02:56:03;17.60;99.90
9223;DHT22;7557;51.698;3.942;2023-07-16T02:58:30;17.60;99.90
9223;DHT22;7557;51.698;3.942;2023-07-16T03:00:58;17.60;99.90
9223;DHT22;7557;51.698;3.942;2023-07-16T03:03:25;17.60;99.90
9223;DHT22;7557;51.698;3.942;2023-07-16T03:05:52;17.60;99.90
9223;DHT22;7557;51.698;3.942;2023-07-16T03:08:19;17.60;99.90
9223;DHT22;7557;51.698;3.942;2023-07-16T03:10:46;17.60;99.90
9223;DHT22;7557;51.698;3.942;2023-07-16T03:13:15;17.60;99.90
9223;DHT22;7557;51.698;3.942;2023-07-16T03:15:42;17.60;99.90
9223;DHT22;7557;51.698;3.942;2023-07-16T03:18:09;17.60;99.90
9223;DHT22;7557;51.698;3.942;2023-07-16T03:20:36;17.60;99.90
9223;DHT22;7557;51.698;3.942;2023-07-16T03:23:04;17.60;99.90
9223;DHT22;7557;51.698;3.942;2023-07-16T03:25:31;17.60;99.90
9223;DHT22;7557;51.698;3.942;2023-07-16T03:27:58;17.60;99.90
9223;DHT22;7557;51.698;3.942;2023-07-16T03:30:27;17.60;99.90
9223;DHT22;7557;51.698;3.942;2023-07-16T03:32:54;17.60;99.90
9223;DHT22;7557;51.698;3.942;2023-07-16T03:35:21;17.50;99.90
9223;DHT22;7557;51.698;3.942;2023-07-16T03:37:49;17.50;99.90
9223;DHT22;7557;51.698;3.942;2023-07-16T03:40:17;17.50;99.90
9223;DHT22;7557;51.698;3.942;2023-07-16T03:42:45;17.50;99.90
9223;DHT22;7557;51.698;3.942;2023-07-16T03:45:12;17.40;99.90
9223;DHT22;7557;51.698;3.942;2023-07-16T03:47:42;17.50;99.90
9223;DHT22;7557;51.698;3.942;2023-07-16T03:50:10;17.50;99.90
9223;DHT22;7557;51.698;3.942;2023-07-16T03:52:37;17.50;99.90
9223;DHT22;7557;51.698;3.942;2023-07-16T03:55:06;17.50;99.90
9223;DHT22;7557;51.698;3.942;2023-07-16T03:57:33;17.50;99.90
9223;DHT22;7557;51.698;3.942;2023-07-16T04:00:01;17.60;99.90
9223;DHT22;7557;51.698;3.942;2023-07-16T04:02:29;17.60;99.90
9223;DHT22;7557;51.698;3.942;2023-07-16T04:04:59;17.60;99.90
9223;DHT22;7557;51.698;3.942;2023-07-16T04:07:26;17.70;99.90
9223;DHT22;7557;51.698;3.942;2023-07-16T04:09:54;17.70;99.90
9223;DHT22;7557;51.698;3.942;2023-07-16T04:12:21;17.80;99.90
9223;DHT22;7557;51.698;3.942;2023-07-16T04:14:49;17.80;99.90
9223;DHT22;7557;51.698;3.942;2023-07-16T04:17:16;17.80;99.90
9223;DHT22;7557;51.698;3.942;2023-07-16T04:19:43;17.80;99.90
9223;DHT22;7557;51.698;3.942;2023-07-16T04:22:12;17.80;99.90
9223;DHT22;7557;51.698;3.942;2023-07-16T04:24:39;17.80;99.90
9223;DHT22;7557;51.698;3.942;2023-07-16T04:27:07;17.70;99.90
9223;DHT22;7557;51.698;3.942;2023-07-16T04:29:34;17.70;99.90
9223;DHT22;7557;51.698;3.942;2023-07-16T04:32:02;17.60;99.90
9223;DHT22;7557;51.698;3.942;2023-07-16T04:34:29;17.60;99.90
9223;DHT22;7557;51.698;3.942;2023-07-16T04:36:57;17.70;99.90
9223;DHT22;7557;51.698;3.942;2023-07-16T04:39:26;17.70;99.90
9223;DHT22;7557;51.698;3.942;2023-07-16T04:41:54;17.70;99.90
9223;DHT22;7557;51.698;3.942;2023-07-16T04:44:21;17.80;99.90
9223;DHT22;7557;51.698;3.942;2023-07-16T04:46:48;17.80;99.90
9223;DHT22;7557;51.698;3.942;2023-07-16T04:49:16;17.80;99.90
9223;DHT22;7557;51.698;3.942;2023-07-16T04:51:43;17.80;99.90
9223;DHT22;7557;51.698;3.942;2023-07-16T04:54:10;17.80;99.90
9223;DHT22;7557;51.698;3.942;2023-07-16T04:56:39;17.90;99.90
9223;DHT22;7557;51.698;3.942;2023-07-16T04:59:07;17.90;99.90
9223;DHT22;7557;51.698;3.942;2023-07-16T05:01:34;17.90;99.90
9223;DHT22;7557;51.698;3.942;2023-07-16T05:04:02;17.90;99.90
9223;DHT22;7557;51.698;3.942;2023-07-16T05:06:29;17.90;99.90
9223;DHT22;7557;51.698;3.942;2023-07-16T05:08:57;18.00;99.90
9223;DHT22;7557;51.698;3.942;2023-07-16T05:11:24;18.10;99.90
9223;DHT22;7557;51.698;3.942;2023-07-16T05:13:54;18.10;99.90
9223;DHT22;7557;51.698;3.942;2023-07-16T05:16:24;18.10;99.90
9223;DHT22;7557;51.698;3.942;2023-07-16T05:18:51;18.20;99.90
9223;DHT22;7557;51.698;3.942;2023-07-16T05:21:19;18.20;99.90
9223;DHT22;7557;51.698;3.942;2023-07-16T05:23:46;18.20;99.90
9223;DHT22;7557;51.698;3.942;2023-07-16T05:26:14;18.20;99.90
9223;DHT22;7557;51.698;3.942;2023-07-16T05:28:41;18.20;99.90
9223;DHT22;7557;51.698;3.942;2023-07-16T05:31:10;18.20;99.90
9223;DHT22;7557;51.698;3.942;2023-07-16T05:33:38;18.10;99.90
9223;DHT22;7557;51.698;3.942;2023-07-16T05:36:06;18.10;99.90
9223;DHT22;7557;51.698;3.942;2023-07-16T05:38:34;18.20;99.90
9223;DHT22;7557;51.698;3.942;2023-07-16T05:41:01;18.40;99.90
9223;DHT22;7557;51.698;3.942;2023-07-16T05:43:29;18.60;99.90
9223;DHT22;7557;51.698;3.942;2023-07-16T05:45:56;18.70;99.90
9223;DHT22;7557;51.698;3.942;2023-07-16T05:48:25;18.80;99.90
9223;DHT22;7557;51.698;3.942;2023-07-16T05:50:53;18.90;99.90
9223;DHT22;7557;51.698;3.942;2023-07-16T05:53:20;19.00;99.90
9223;DHT22;7557;51.698;3.942;2023-07-16T05:55:48;19.10;99.90
9223;DHT22;7557;51.698;3.942;2023-07-16T05:58:17;19.10;99.90
9223;DHT22;7557;51.698;3.942;2023-07-16T06:00:45;19.10;99.90
9223;DHT22;7557;51.698;3.942;2023-07-16T06:03:12;19.20;99.90
9223;DHT22;7557;51.698;3.942;2023-07-16T06:05:44;19.30;99.90
9223;DHT22;7557;51.698;3.942;2023-07-16T06:08:11;19.40;99.90
9223;DHT22;7557;51.698;3.942;2023-07-16T06:10:39;19.40;99.90
9223;DHT22;7557;51.698;3.942;2023-07-16T06:13:06;19.30;99.90
9223;DHT22;7557;51.698;3.942;2023-07-16T06:15:34;19.20;99.90
9223;DHT22;7557;51.698;3.942;2023-07-16T06:18:03;19.30;99.90
9223;DHT22;7557;51.698;3.942;2023-07-16T06:20:30;19.40;99.90
9223;DHT22;7557;51.698;3.942;2023-07-16T06:22:59;19.50;99.90
9223;DHT22;7557;51.698;3.942;2023-07-16T06:25:26;19.60;99.90
9223;DHT22;7557;51.698;3.942;2023-07-16T06:27:54;19.40;99.90
9223;DHT22;7557;51.698;3.942;2023-07-16T06:30:21;19.30;99.90
9223;DHT22;7557;51.698;3.942;2023-07-16T06:32:49;19.30;99.90
9223;DHT22;7557;51.698;3.942;2023-07-16T06:35:16;19.50;99.90
9223;DHT22;7557;51.698;3.942;2023-07-16T06:37:43;19.70;99.90
9223;DHT22;7557;51.698;3.942;2023-07-16T06:40:14;19.90;99.90
9223;DHT22;7557;51.698;3.942;2023-07-16T06:42:42;20.00;99.90
9223;DHT22;7557;51.698;3.942;2023-07-16T06:45:09;20.10;99.90
9223;DHT22;7557;51.698;3.942;2023-07-16T06:47:37;20.20;99.90
9223;DHT22;7557;51.698;3.942;2023-07-16T06:50:05;20.30;99.90
9223;DHT22;7557;51.698;3.942;2023-07-16T06:52:32;20.40;99.90
9223;DHT22;7557;51.698;3.942;2023-07-16T06:55:00;20.50;99.90
9223;DHT22;7557;51.698;3.942;2023-07-16T06:57:29;20.40;99.90
9223;DHT22;7557;51.698;3.942;2023-07-16T06:59:56;20.40;99.90
9223;DHT22;7557;51.698;3.942;2023-07-16T07:02:23;20.40;99.90
9223;DHT22;7557;51.698;3.942;2023-07-16T07:04:50;20.50;99.90
9223;DHT22;7557;51.698;3.942;2023-07-16T07:07:18;20.50;99.90
9223;DHT22;7557;51.698;3.942;2023-07-16T07:09:47;20.30;99.90
9223;DHT22;7557;51.698;3.942;2023-07-16T07:12:16;20.20;99.90
9223;DHT22;7557;51.698;3.942;2023-07-16T07:14:46;20.10;99.90
9223;DHT22;7557;51.698;3.942;2023-07-16T07:17:13;19.90;99.90
9223;DHT22;7557;51.698;3.942;2023-07-16T07:19:41;19.60;99.90
9223;DHT22;7557;51.698;3.942;2023-07-16T07:22:08;19.40;99.90
9223;DHT22;7557;51.698;3.942;2023-07-16T07:24:35;19.40;99.90
9223;DHT22;7557;51.698;3.942;2023-07-16T07:27:03;19.40;99.90
9223;DHT22;7557;51.698;3.942;2023-07-16T07:29:31;19.50;99.90
9223;DHT22;7557;51.698;3.942;2023-07-16T07:32:00;19.60;99.90
9223;DHT22;7557;51.698;3.942;2023-07-16T07:34:27;19.80;99.90
9223;DHT22;7557;51.698;3.942;2023-07-16T07:36:54;20.00;99.90
9223;DHT22;7557;51.698;3.942;2023-07-16T07:39:21;20.30;99.90
9223;DHT22;7557;51.698;3.942;2023-07-16T07:41:49;20.40;99.90
9223;DHT22;7557;51.698;3.942;2023-07-16T07:44:17;20.50;99.90
9223;DHT22;7557;51.698;3.942;2023-07-16T07:46:44;20.50;99.90
9223;DHT22;7557;51.698;3.942;2023-07-16T07:49:13;20.40;99.90
9223;DHT22;7557;51.698;3.942;2023-07-16T07:51:41;20.30;99.90
9223;DHT22;7557;51.698;3.942;2023-07-16T07:54:08;20.20;99.90
9223;DHT22;7557;51.698;3.942;2023-07-16T07:56:35;20.30;99.90
9223;DHT22;7557;51.698;3.942;2023-07-16T07:59:04;20.20;99.90
9223;DHT22;7557;51.698;3.942;2023-07-16T08:01:31;20.20;99.90
9223;DHT22;7557;51.698;3.942;2023-07-16T08:03:58;20.10;99.90
9223;DHT22;7557;51.698;3.942;2023-07-16T08:06:28;20.10;99.90
9223;DHT22;7557;51.698;3.942;2023-07-16T08:08:55;20.10;99.90
9223;DHT22;7557;51.698;3.942;2023-07-16T08:11:22;20.10;99.90
9223;DHT22;7557;51.698;3.942;2023-07-16T08:13:50;20.10;99.90
9223;DHT22;7557;51.698;3.942;2023-07-16T08:16:17;20.20;99.90
9223;DHT22;7557;51.698;3.942;2023-07-16T08:18:45;20.40;99.90
9223;DHT22;7557;51.698;3.942;2023-07-16T08:21:14;20.60;99.90
9223;DHT22;7557;51.698;3.942;2023-07-16T08:23:48;20.90;99.90
9223;DHT22;7557;51.698;3.942;2023-07-16T08:26:16;21.10;99.90
9223;DHT22;7557;51.698;3.942;2023-07-16T08:28:43;21.20;99.80
9223;DHT22;7557;51.698;3.942;2023-07-16T08:31:11;21.30;99.40
9223;DHT22;7557;51.698;3.942;2023-07-16T08:33:40;21.40;99.50
9223;DHT22;7557;51.698;3.942;2023-07-16T08:36:09;21.60;99.60
9223;DHT22;7557;51.698;3.942;2023-07-16T08:38:37;21.80;99.40
9223;DHT22;7557;51.698;3.942;2023-07-16T08:41:05;22.00;99.40
9223;DHT22;7557;51.698;3.942;2023-07-16T08:43:33;22.00;99.20
9223;DHT22;7557;51.698;3.942;2023-07-16T08:46:02;22.10;99.00
9223;DHT22;7557;51.698;3.942;2023-07-16T08:48:29;22.10;98.50
9223;DHT22;7557;51.698;3.942;2023-07-16T08:50:57;22.10;98.60
9223;DHT22;7557;51.698;3.942;2023-07-16T08:53:25;22.30;98.60
9223;DHT22;7557;51.698;3.942;2023-07-16T08:55:53;22.50;98.20
9223;DHT22;7557;51.698;3.942;2023-07-16T08:58:23;22.60;97.90
9223;DHT22;7557;51.698;3.942;2023-07-16T09:00:51;22.50;97.40
9223;DHT22;7557;51.698;3.942;2023-07-16T09:03:19;22.40;97.50
9223;DHT22;7557;51.698;3.942;2023-07-16T09:05:46;22.30;97.90
9223;DHT22;7557;51.698;3.942;2023-07-16T09:08:14;22.30;97.50
9223;DHT22;7557;51.698;3.942;2023-07-16T09:10:42;22.10;97.60
9223;DHT22;7557;51.698;3.942;2023-07-16T09:13:10;22.00;97.60
9223;DHT22;7557;51.698;3.942;2023-07-16T09:15:39;21.90;97.40
9223;DHT22;7557;51.698;3.942;2023-07-16T09:18:10;21.80;97.20
9223;DHT22;7557;51.698;3.942;2023-07-16T09:20:40;21.90;97.40
9223;DHT22;7557;51.698;3.942;2023-07-16T09:23:09;22.00;97.00
9223;DHT22;7557;51.698;3.942;2023-07-16T09:25:36;22.10;97.00
9223;DHT22;7557;51.698;3.942;2023-07-16T09:28:05;22.20;96.50
9223;DHT22;7557;51.698;3.942;2023-07-16T09:30:33;22.20;96.20
9223;DHT22;7557;51.698;3.942;2023-07-16T09:33:12;22.20;96.40
9223;DHT22;7557;51.698;3.942;2023-07-16T09:35:40;22.40;96.50
9223;DHT22;7557;51.698;3.942;2023-07-16T09:38:08;22.60;96.40
9223;DHT22;7557;51.698;3.942;2023-07-16T09:40:36;22.70;96.20
9223;DHT22;7557;51.698;3.942;2023-07-16T09:43:04;22.80;96.20
9223;DHT22;7557;51.698;3.942;2023-07-16T09:45:32;22.90;95.90
9223;DHT22;7557;51.698;3.942;2023-07-16T09:48:00;22.80;95.80
9223;DHT22;7557;51.698;3.942;2023-07-16T09:50:30;22.70;95.70
9223;DHT22;7557;51.698;3.942;2023-07-16T09:52:59;22.70;95.60
9223;DHT22;7557;51.698;3.942;2023-07-16T09:55:26;22.60;95.70
9223;DHT22;7557;51.698;3.942;2023-07-16T09:57:56;22.60;95.70
9223;DHT22;7557;51.698;3.942;2023-07-16T10:00:25;22.50;95.90
9223;DHT22;7557;51.698;3.942;2023-07-16T10:02:54;22.60;96.10
9223;DHT22;7557;51.698;3.942;2023-07-16T10:05:24;22.70;95.70
9223;DHT22;7557;51.698;3.942;2023-07-16T10:07:55;22.70;95.80
9223;DHT22;7557;51.698;3.942;2023-07-16T10:10:26;22.70;95.90
9223;DHT22;7557;51.698;3.942;2023-07-16T10:12:55;22.80;96.10
9223;DHT22;7557;51.698;3.942;2023-07-16T10:15:27;22.90;96.00
9223;DHT22;7557;51.698;3.942;2023-07-16T10:17:55;23.10;95.50
9223;DHT22;7557;51.698;3.942;2023-07-16T10:20:30;23.20;94.90
9223;DHT22;7557;51.698;3.942;2023-07-16T10:23:10;23.20;94.70
9223;DHT22;7557;51.698;3.942;2023-07-16T10:25:39;23.10;95.00
9223;DHT22;7557;51.698;3.942;2023-07-16T10:28:07;23.10;95.20
9223;DHT22;7557;51.698;3.942;2023-07-16T10:30:34;23.10;95.00
9223;DHT22;7557;51.698;3.942;2023-07-16T10:33:03;23.00;94.90
9223;DHT22;7557;51.698;3.942;2023-07-16T10:35:35;22.80;95.20
9223;DHT22;7557;51.698;3.942;2023-07-16T10:38:04;22.70;95.20
9223;DHT22;7557;51.698;3.942;2023-07-16T10:40:32;22.70;95.40
9223;DHT22;7557;51.698;3.942;2023-07-16T10:42:59;22.70;95.30
9223;DHT22;7557;51.698;3.942;2023-07-16T10:45:28;22.60;95.70
9223;DHT22;7557;51.698;3.942;2023-07-16T10:47:56;22.60;95.80
9223;DHT22;7557;51.698;3.942;2023-07-16T10:50:23;22.60;95.90
9223;DHT22;7557;51.698;3.942;2023-07-16T10:52:52;22.70;96.10
9223;DHT22;7557;51.698;3.942;2023-07-16T10:55:23;22.90;96.10
9223;DHT22;7557;51.698;3.942;2023-07-16T10:57:51;23.10;95.90
9223;DHT22;7557;51.698;3.942;2023-07-16T11:00:19;23.10;95.90
9223;DHT22;7557;51.698;3.942;2023-07-16T11:02:50;23.10;95.70
9223;DHT22;7557;51.698;3.942;2023-07-16T11:05:18;23.00;95.80
9223;DHT22;7557;51.698;3.942;2023-07-16T11:07:46;23.00;95.90
9223;DHT22;7557;51.698;3.942;2023-07-16T11:10:15;22.90;96.00
9223;DHT22;7557;51.698;3.942;2023-07-16T11:12:49;22.90;96.00
9223;DHT22;7557;51.698;3.942;2023-07-16T11:15:17;22.90;96.10
9223;DHT22;7557;51.698;3.942;2023-07-16T11:17:49;23.10;96.30
9223;DHT22;7557;51.698;3.942;2023-07-16T11:20:20;23.20;96.10
9223;DHT22;7557;51.698;3.942;2023-07-16T11:22:47;23.30;96.20
9223;DHT22;7557;51.698;3.942;2023-07-16T11:25:14;23.40;96.40
9223;DHT22;7557;51.698;3.942;2023-07-16T11:27:43;23.60;96.30
9223;DHT22;7557;51.698;3.942;2023-07-16T11:30:11;23.70;96.10
9223;DHT22;7557;51.698;3.942;2023-07-16T11:32:43;23.80;95.80
9223;DHT22;7557;51.698;3.942;2023-07-16T11:35:16;24.00;95.80
9223;DHT22;7557;51.698;3.942;2023-07-16T11:37:45;24.00;95.20
9223;DHT22;7557;51.698;3.942;2023-07-16T11:40:15;23.80;95.20
9223;DHT22;7557;51.698;3.942;2023-07-16T11:42:45;23.60;95.40
9223;DHT22;7557;51.698;3.942;2023-07-16T11:45:17;23.50;95.40
9223;DHT22;7557;51.698;3.942;2023-07-16T11:47:44;23.60;95.60
9223;DHT22;7557;51.698;3.942;2023-07-16T11:50:12;23.60;95.60
9223;DHT22;7557;51.698;3.942;2023-07-16T11:52:40;23.80;95.70
9223;DHT22;7557;51.698;3.942;2023-07-16T11:55:08;24.00;95.60
9223;DHT22;7557;51.698;3.942;2023-07-16T11:57:36;24.20;95.30
9223;DHT22;7557;51.698;3.942;2023-07-16T12:00:06;24.30;95.00
9223;DHT22;7557;51.698;3.942;2023-07-16T12:02:34;24.30;94.90
9223;DHT22;7557;51.698;3.942;2023-07-16T12:05:01;24.30;94.70
9223;DHT22;7557;51.698;3.942;2023-07-16T12:07:34;24.20;94.80
9223;DHT22;7557;51.698;3.942;2023-07-16T12:10:02;24.20;94.90
9223;DHT22;7557;51.698;3.942;2023-07-16T12:12:30;24.20;94.80
9223;DHT22;7557;51.698;3.942;2023-07-16T12:14:58;24.30;94.80
9223;DHT22;7557;51.698;3.942;2023-07-16T12:17:27;24.20;94.60
9223;DHT22;7557;51.698;3.942;2023-07-16T12:19:54;24.20;94.70
9223;DHT22;7557;51.698;3.942;2023-07-16T12:22:22;24.40;94.70
9223;DHT22;7557;51.698;3.942;2023-07-16T12:24:51;24.50;94.60
9223;DHT22;7557;51.698;3.942;2023-07-16T12:27:18;24.50;94.60
9223;DHT22;7557;51.698;3.942;2023-07-16T12:29:46;24.60;94.70
9223;DHT22;7557;51.698;3.942;2023-07-16T12:32:13;24.60;94.60
9223;DHT22;7557;51.698;3.942;2023-07-16T12:34:42;24.60;94.60
9223;DHT22;7557;51.698;3.942;2023-07-16T12:37:10;24.60;95.00
9223;DHT22;7557;51.698;3.942;2023-07-16T12:39:39;24.70;95.20
9223;DHT22;7557;51.698;3.942;2023-07-16T12:42:06;24.60;95.00
9223;DHT22;7557;51.698;3.942;2023-07-16T12:44:34;24.40;95.30
9223;DHT22;7557;51.698;3.942;2023-07-16T12:47:01;24.20;95.70
9223;DHT22;7557;51.698;3.942;2023-07-16T12:49:29;24.10;95.90
9223;DHT22;7557;51.698;3.942;2023-07-16T12:51:58;24.20;96.00
9223;DHT22;7557;51.698;3.942;2023-07-16T12:54:26;24.20;96.00
9223;DHT22;7557;51.698;3.942;2023-07-16T12:56:54;24.20;95.90
9223;DHT22;7557;51.698;3.942;2023-07-16T12:59:21;24.20;96.10
9223;DHT22;7557;51.698;3.942;2023-07-16T13:01:50;24.20;96.30
9223;DHT22;7557;51.698;3.942;2023-07-16T13:04:17;24.20;96.20
9223;DHT22;7557;51.698;3.942;2023-07-16T13:06:45;24.20;96.20
9223;DHT22;7557;51.698;3.942;2023-07-16T13:09:14;24.10;96.40
9223;DHT22;7557;51.698;3.942;2023-07-16T13:11:42;24.00;96.20
9223;DHT22;7557;51.698;3.942;2023-07-16T13:14:10;23.80;96.30
9223;DHT22;7557;51.698;3.942;2023-07-16T13:16:37;23.60;96.40
9223;DHT22;7557;51.698;3.942;2023-07-16T13:19:04;23.60;96.70
9223;DHT22;7557;51.698;3.942;2023-07-16T13:21:32;23.40;96.70
9223;DHT22;7557;51.698;3.942;2023-07-16T13:24:00;23.40;96.90
9223;DHT22;7557;51.698;3.942;2023-07-16T13:26:37;23.30;96.80
9223;DHT22;7557;51.698;3.942;2023-07-16T13:29:05;23.40;97.40
9223;DHT22;7557;51.698;3.942;2023-07-16T13:31:32;23.40;97.40
9223;DHT22;7557;51.698;3.942;2023-07-16T13:34:02;23.50;97.40
9223;DHT22;7557;51.698;3.942;2023-07-16T13:36:30;23.60;97.40
9223;DHT22;7557;51.698;3.942;2023-07-16T13:38:58;23.80;97.20
9223;DHT22;7557;51.698;3.942;2023-07-16T13:41:25;23.90;97.20
9223;DHT22;7557;51.698;3.942;2023-07-16T13:44:07;24.00;96.90
9223;DHT22;7557;51.698;3.942;2023-07-16T13:46:44;24.10;96.60
9223;DHT22;7557;51.698;3.942;2023-07-16T13:49:16;24.10;96.50
9223;DHT22;7557;51.698;3.942;2023-07-16T13:51:48;24.00;96.40
9223;DHT22;7557;51.698;3.942;2023-07-16T13:57:30;23.80;96.50
9223;DHT22;7557;51.698;3.942;2023-07-16T13:59:59;23.60;96.80
9223;DHT22;7557;51.698;3.942;2023-07-16T14:02:27;23.40;97.00
9223;DHT22;7557;51.698;3.942;2023-07-16T14:04:54;23.30;97.40
9223;DHT22;7557;51.698;3.942;2023-07-16T14:07:22;23.30;97.60
9223;DHT22;7557;51.698;3.942;2023-07-16T14:09:50;23.20;97.70
9223;DHT22;7557;51.698;3.942;2023-07-16T14:12:17;23.20;97.90
9223;DHT22;7557;51.698;3.942;2023-07-16T14:14:44;23.10;97.60
9223;DHT22;7557;51.698;3.942;2023-07-16T14:17:13;23.10;97.80
9223;DHT22;7557;51.698;3.942;2023-07-16T14:19:41;23.10;98.00
9223;DHT22;7557;51.698;3.942;2023-07-16T14:22:09;23.10;97.80
9223;DHT22;7557;51.698;3.942;2023-07-16T14:24:39;23.10;97.90
9223;DHT22;7557;51.698;3.942;2023-07-16T14:27:06;23.10;98.20
9223;DHT22;7557;51.698;3.942;2023-07-16T14:29:34;23.10;98.30
9223;DHT22;7557;51.698;3.942;2023-07-16T14:32:02;23.20;98.30
9223;DHT22;7557;51.698;3.942;2023-07-16T14:34:31;23.20;98.30
9223;DHT22;7557;51.698;3.942;2023-07-16T14:36:58;23.20;97.70
9223;DHT22;7557;51.698;3.942;2023-07-16T14:39:26;23.20;97.80
9223;DHT22;7557;51.698;3.942;2023-07-16T14:41:53;23.20;98.00
9223;DHT22;7557;51.698;3.942;2023-07-16T14:44:21;23.10;97.90
9223;DHT22;7557;51.698;3.942;2023-07-16T14:46:48;23.10;98.10
9223;DHT22;7557;51.698;3.942;2023-07-16T14:49:15;23.20;98.30
9223;DHT22;7557;51.698;3.942;2023-07-16T14:51:44;23.30;97.80
9223;DHT22;7557;51.698;3.942;2023-07-16T14:54:12;23.30;97.40
9223;DHT22;7557;51.698;3.942;2023-07-16T14:56:39;23.30;97.20
9223;DHT22;7557;51.698;3.942;2023-07-16T14:59:07;23.20;97.20
9223;DHT22;7557;51.698;3.942;2023-07-16T15:01:34;23.30;97.20
9223;DHT22;7557;51.698;3.942;2023-07-16T15:04:02;23.30;96.90
9223;DHT22;7557;51.698;3.942;2023-07-16T15:06:30;23.50;96.90
9223;DHT22;7557;51.698;3.942;2023-07-16T15:08:59;23.30;96.60
9223;DHT22;7557;51.698;3.942;2023-07-16T15:11:26;23.30;96.60
9223;DHT22;7557;51.698;3.942;2023-07-16T15:13:53;23.20;96.40
9223;DHT22;7557;51.698;3.942;2023-07-16T15:16:21;23.20;96.30
9223;DHT22;7557;51.698;3.942;2023-07-16T15:18:48;23.20;96.30
9223;DHT22;7557;51.698;3.942;2023-07-16T15:21:15;23.20;96.20
9223;DHT22;7557;51.698;3.942;2023-07-16T15:23:43;23.20;96.10
9223;DHT22;7557;51.698;3.942;2023-07-16T15:26:13;23.10;96.10
9223;DHT22;7557;51.698;3.942;2023-07-16T15:28:40;23.10;96.10
9223;DHT22;7557;51.698;3.942;2023-07-16T15:31:09;23.10;96.30
9223;DHT22;7557;51.698;3.942;2023-07-16T15:33:37;23.10;96.10
9223;DHT22;7557;51.698;3.942;2023-07-16T15:36:05;23.10;96.00
9223;DHT22;7557;51.698;3.942;2023-07-16T15:38:32;23.20;95.90
9223;DHT22;7557;51.698;3.942;2023-07-16T15:40:59;23.20;96.00
9223;DHT22;7557;51.698;3.942;2023-07-16T15:43:28;23.20;96.20
9223;DHT22;7557;51.698;3.942;2023-07-16T15:45:55;23.20;96.30
9223;DHT22;7557;51.698;3.942;2023-07-16T15:48:23;23.20;96.70
9223;DHT22;7557;51.698;3.942;2023-07-16T15:50:56;23.30;96.60
9223;DHT22;7557;51.698;3.942;2023-07-16T15:53:25;23.30;96.80
9223;DHT22;7557;51.698;3.942;2023-07-16T15:55:53;23.20;97.00
9223;DHT22;7557;51.698;3.942;2023-07-16T15:58:20;23.00;97.30
9223;DHT22;7557;51.698;3.942;2023-07-16T16:00:49;23.00;97.20
9223;DHT22;7557;51.698;3.942;2023-07-16T16:03:17;23.00;97.50
9223;DHT22;7557;51.698;3.942;2023-07-16T16:05:44;22.90;97.60
9223;DHT22;7557;51.698;3.942;2023-07-16T16:08:14;22.90;97.80
9223;DHT22;7557;51.698;3.942;2023-07-16T16:10:42;23.00;98.00
9223;DHT22;7557;51.698;3.942;2023-07-16T16:13:11;23.00;98.00
9223;DHT22;7557;51.698;3.942;2023-07-16T16:15:39;23.00;98.20